sensor_id;sensor_type;location;lat;lon;timestamp;P1;durP1;ratioP1;P2;durP2;ratioP2
43337;SDS011;28933;52.492;13.434;2024-01-30T12:23:56;9.88;;;6.00;;
43337;SDS011;28933;52.492;13.434;2024-01-30T12:26:43;12.32;;;7.05;;
43337;SDS011;28933;52.492;13.434;2024-01-30T12:29:31;10.98;;;6.70;;
43337;SDS011;28933;52.492;13.434;2024-01-30T12:32:18;9.55;;;6.10;;
43337;SDS011;28933;52.492;13.434;2024-01-30T12:35:06;10.00;;;5.80;;
43337;SDS011;28933;52.492;13.434;2024-01-30T12:37:54;10.82;;;6.50;;
43337;SDS011;28933;52.492;13.434;2024-01-30T12:40:40;10.48;;;6.47;;
43337;SDS011;28933;52.492;13.434;2024-01-30T12:43:26;11.82;;;6.85;;
43337;SDS011;28933;52.492;13.434;2024-01-30T12:46:13;10.13;;;6.72;;
43337;SDS011;28933;52.492;13.434;2024-01-30T12:49:02;11.85;;;6.47;;
43337;SDS011;28933;52.492;13.434;2024-01-30T12:51:48;12.43;;;6.32;;
43337;SDS011;28933;52.492;13.434;2024-01-30T12:54:34;10.13;;;6.05;;
43337;SDS011;28933;52.492;13.434;2024-01-30T12:57:20;12.45;;;6.13;;
43337;SDS011;28933;52.492;13.434;2024-01-30T13:00:06;10.15;;;6.45;;
43337;SDS011;28933;52.492;13.434;2024-01-30T13:02:53;9.43;;;6.43;;
43337;SDS011;28933;52.492;13.434;2024-01-30T13:05:39;13.50;;;6.22;;
43337;SDS011;28933;52.492;13.434;2024-01-30T13:08:25;9.32;;;6.13;;
43337;SDS011;28933;52.492;13.434;2024-01-30T13:11:11;25.88;;;6.70;;
43337;SDS011;28933;52.492;13.434;2024-01-30T13:13:57;11.43;;;6.32;;
43337;SDS011;28933;52.492;13.434;2024-01-30T13:16:43;10.75;;;6.30;;
43337;SDS011;28933;52.492;13.434;2024-01-30T13:19:30;8.27;;;5.72;;
43337;SDS011;28933;52.492;13.434;2024-01-30T13:22:15;8.88;;;6.05;;
43337;SDS011;28933;52.492;13.434;2024-01-30T13:25:01;8.43;;;5.65;;
43337;SDS011;28933;52.492;13.434;2024-01-30T13:27:48;11.57;;;6.53;;
43337;SDS011;28933;52.492;13.434;2024-01-30T13:30:34;10.40;;;6.25;;
43337;SDS011;28933;52.492;13.434;2024-01-30T13:33:19;12.73;;;6.60;;
43337;SDS011;28933;52.492;13.434;2024-01-30T13:36:06;10.85;;;6.43;;
43337;SDS011;28933;52.492;13.434;2024-01-30T13:38:53;9.60;;;5.93;;
43337;SDS011;28933;52.492;13.434;2024-01-30T13:41:39;10.45;;;6.45;;
43337;SDS011;28933;52.492;13.434;2024-01-30T13:44:25;9.38;;;5.10;;
43337;SDS011;28933;52.492;13.434;2024-01-30T13:47:11;8.38;;;5.78;;
43337;SDS011;28933;52.492;13.434;2024-01-30T13:49:57;9.48;;;5.72;;
43337;SDS011;28933;52.492;13.434;2024-01-30T13:52:43;10.55;;;5.90;;
43337;SDS011;28933;52.492;13.434;2024-01-30T13:55:29;10.00;;;6.10;;
43337;SDS011;28933;52.492;13.434;2024-01-30T13:58:15;9.00;;;6.47;;
43337;SDS011;28933;52.492;13.434;2024-01-30T14:01:01;9.10;;;5.97;;
43337;SDS011;28933;52.492;13.434;2024-01-30T14:03:47;11.75;;;6.90;;
43337;SDS011;28933;52.492;13.434;2024-01-30T14:06:33;9.60;;;5.97;;
43337;SDS011;28933;52.492;13.434;2024-01-30T14:09:19;9.60;;;6.18;;
43337;SDS011;28933;52.492;13.434;2024-01-30T14:12:06;17.08;;;7.07;;
43337;SDS011;28933;52.492;13.434;2024-01-30T14:14:53;9.63;;;6.07;;
43337;SDS011;28933;52.492;13.434;2024-01-30T14:17:39;10.10;;;6.60;;
43337;SDS011;28933;52.492;13.434;2024-01-30T14:20:25;9.55;;;6.40;;
43337;SDS011;28933;52.492;13.434;2024-01-30T14:23:11;11.90;;;6.88;;
43337;SDS011;28933;52.492;13.434;2024-01-30T14:25:57;9.35;;;6.32;;
43337;SDS011;28933;52.492;13.434;2024-01-30T14:28:43;11.82;;;6.53;;
43337;SDS011;28933;52.492;13.434;2024-01-30T14:31:29;13.95;;;6.72;;
43337;SDS011;28933;52.492;13.434;2024-01-30T14:34:15;18.02;;;9.98;;
43337;SDS011;28933;52.492;13.434;2024-01-30T14:37:00;33.97;;;15.55;;
43337;SDS011;28933;52.492;13.434;2024-01-30T14:39:46;24.77;;;10.73;;
43337;SDS011;28933;52.492;13.434;2024-01-30T14:42:33;42.30;;;21.90;;
43337;SDS011;28933;52.492;13.434;2024-01-30T14:45:21;18.25;;;8.18;;
43337;SDS011;28933;52.492;13.434;2024-01-30T14:48:07;11.68;;;7.40;;
43337;SDS011;28933;52.492;13.434;2024-01-30T14:50:54;12.15;;;7.38;;
43337;SDS011;28933;52.492;13.434;2024-01-30T14:53:40;21.40;;;12.35;;
43337;SDS011;28933;52.492;13.434;2024-01-30T14:56:26;17.23;;;7.65;;
43337;SDS011;28933;52.492;13.434;2024-01-30T14:59:13;16.52;;;8.10;;
43337;SDS011;28933;52.492;13.434;2024-01-30T15:01:58;10.90;;;6.65;;
43337;SDS011;28933;52.492;13.434;2024-01-30T15:04:44;11.50;;;6.85;;
43337;SDS011;28933;52.492;13.434;2024-01-30T15:07:30;16.65;;;6.97;;
43337;SDS011;28933;52.492;13.434;2024-01-30T15:10:16;23.85;;;12.23;;
43337;SDS011;28933;52.492;13.434;2024-01-30T15:13:02;17.27;;;7.85;;
43337;SDS011;28933;52.492;13.434;2024-01-30T15:15:48;12.88;;;7.28;;
43337;SDS011;28933;52.492;13.434;2024-01-30T15:18:34;11.23;;;6.32;;
43337;SDS011;28933;52.492;13.434;2024-01-30T15:21:20;10.10;;;5.75;;
43337;SDS011;28933;52.492;13.434;2024-01-30T15:24:07;13.98;;;8.50;;
43337;SDS011;28933;52.492;13.434;2024-01-30T15:26:53;19.80;;;10.65;;
43337;SDS011;28933;52.492;13.434;2024-01-30T15:29:39;21.58;;;12.02;;
43337;SDS011;28933;52.492;13.434;2024-01-30T15:32:25;13.43;;;8.15;;
43337;SDS011;28933;52.492;13.434;2024-01-30T15:35:11;18.30;;;10.18;;
43337;SDS011;28933;52.492;13.434;2024-01-30T15:37:57;14.77;;;7.40;;
43337;SDS011;28933;52.492;13.434;2024-01-30T15:40:43;12.93;;;7.13;;
43337;SDS011;28933;52.492;13.434;2024-01-30T15:43:29;12.50;;;6.45;;
43337;SDS011;28933;52.492;13.434;2024-01-30T15:46:17;12.90;;;7.30;;
43337;SDS011;28933;52.492;13.434;2024-01-30T15:49:04;13.23;;;8.52;;
43337;SDS011;28933;52.492;13.434;2024-01-30T15:51:50;13.45;;;8.85;;
43337;SDS011;28933;52.492;13.434;2024-01-30T15:54:36;13.82;;;7.03;;
43337;SDS011;28933;52.492;13.434;2024-01-30T15:57:21;19.70;;;8.55;;
43337;SDS011;28933;52.492;13.434;2024-01-30T16:00:08;9.73;;;7.05;;
43337;SDS011;28933;52.492;13.434;2024-01-30T16:02:55;13.68;;;7.43;;
43337;SDS011;28933;52.492;13.434;2024-01-30T16:05:43;15.05;;;8.60;;
43337;SDS011;28933;52.492;13.434;2024-01-30T16:08:29;17.88;;;9.52;;
43337;SDS011;28933;52.492;13.434;2024-01-30T16:11:16;13.70;;;9.07;;
43337;SDS011;28933;52.492;13.434;2024-01-30T16:14:03;12.57;;;8.35;;
43337;SDS011;28933;52.492;13.434;2024-01-30T16:16:49;14.02;;;9.27;;
43337;SDS011;28933;52.492;13.434;2024-01-30T16:19:35;16.92;;;8.70;;
43337;SDS011;28933;52.492;13.434;2024-01-30T16:22:20;20.90;;;10.90;;
43337;SDS011;28933;52.492;13.434;2024-01-30T16:25:06;14.30;;;9.77;;
43337;SDS011;28933;52.492;13.434;2024-01-30T16:27:53;18.80;;;10.43;;
43337;SDS011;28933;52.492;13.434;2024-01-30T16:30:39;17.08;;;8.77;;
43337;SDS011;28933;52.492;13.434;2024-01-30T16:33:24;17.60;;;9.45;;
43337;SDS011;28933;52.492;13.434;2024-01-30T16:36:10;16.17;;;9.10;;
43337;SDS011;28933;52.492;13.434;2024-01-30T16:38:56;12.93;;;8.55;;
43337;SDS011;28933;52.492;13.434;2024-01-30T16:41:43;12.50;;;7.35;;
43337;SDS011;28933;52.492;13.434;2024-01-30T16:44:29;25.83;;;9.52;;
43337;SDS011;28933;52.492;13.434;2024-01-30T16:47:16;17.02;;;9.13;;
43337;SDS011;28933;52.492;13.434;2024-01-30T16:50:01;16.05;;;9.40;;
43337;SDS011;28933;52.492;13.434;2024-01-30T16:52:48;11.85;;;7.90;;
43337;SDS011;28933;52.492;13.434;2024-01-30T16:55:33;13.57;;;9.68;;
43337;SDS011;28933;52.492;13.434;2024-01-30T16:58:19;18.20;;;8.30;;
43337;SDS011;28933;52.492;13.434;2024-01-30T17:01:05;16.38;;;10.48;;
43337;SDS011;28933;52.492;13.434;2024-01-30T17:03:51;18.88;;;10.13;;
43337;SDS011;28933;52.492;13.434;2024-01-30T17:06:37;17.00;;;8.82;;
43337;SDS011;28933;52.492;13.434;2024-01-30T17:09:23;17.35;;;8.48;;
43337;SDS011;28933;52.492;13.434;2024-01-30T17:12:09;19.70;;;8.68;;
43337;SDS011;28933;52.492;13.434;2024-01-30T17:14:57;16.95;;;9.75;;
43337;SDS011;28933;52.492;13.434;2024-01-30T17:17:43;12.90;;;7.90;;
43337;SDS011;28933;52.492;13.434;2024-01-30T17:20:28;13.32;;;8.77;;
43337;SDS011;28933;52.492;13.434;2024-01-30T17:23:14;17.77;;;9.88;;
43337;SDS011;28933;52.492;13.434;2024-01-30T17:26:00;13.52;;;8.82;;
43337;SDS011;28933;52.492;13.434;2024-01-30T17:28:46;15.57;;;9.32;;
43337;SDS011;28933;52.492;13.434;2024-01-30T17:31:32;13.48;;;8.40;;
43337;SDS011;28933;52.492;13.434;2024-01-30T17:34:18;11.95;;;7.75;;
43337;SDS011;28933;52.492;13.434;2024-01-30T17:37:04;18.42;;;9.77;;
43337;SDS011;28933;52.492;13.434;2024-01-30T17:39:50;21.63;;;8.82;;
43337;SDS011;28933;52.492;13.434;2024-01-30T17:42:36;15.82;;;10.10;;
43337;SDS011;28933;52.492;13.434;2024-01-30T17:45:22;13.57;;;8.15;;
43337;SDS011;28933;52.492;13.434;2024-01-30T17:48:09;15.32;;;9.02;;
43337;SDS011;28933;52.492;13.434;2024-01-30T17:50:55;15.45;;;10.45;;
43337;SDS011;28933;52.492;13.434;2024-01-30T17:53:42;16.02;;;10.77;;
43337;SDS011;28933;52.492;13.434;2024-01-30T17:56:28;19.38;;;11.32;;
43337;SDS011;28933;52.492;13.434;2024-01-30T17:59:14;16.33;;;10.45;;
43337;SDS011;28933;52.492;13.434;2024-01-30T18:02:06;15.60;;;10.10;;
43337;SDS011;28933;52.492;13.434;2024-01-30T18:04:52;17.63;;;9.95;;
43337;SDS011;28933;52.492;13.434;2024-01-30T18:07:38;15.35;;;10.40;;
43337;SDS011;28933;52.492;13.434;2024-01-30T18:10:24;17.38;;;11.48;;
43337;SDS011;28933;52.492;13.434;2024-01-30T18:13:10;18.73;;;11.68;;
43337;SDS011;28933;52.492;13.434;2024-01-30T18:15:58;17.77;;;11.27;;
43337;SDS011;28933;52.492;13.434;2024-01-30T18:18:44;21.08;;;13.00;;
43337;SDS011;28933;52.492;13.434;2024-01-30T18:21:30;17.80;;;12.35;;
43337;SDS011;28933;52.492;13.434;2024-01-30T18:24:16;23.17;;;13.85;;
43337;SDS011;28933;52.492;13.434;2024-01-30T18:27:02;22.50;;;12.48;;
43337;SDS011;28933;52.492;13.434;2024-01-30T18:29:48;22.15;;;11.57;;
43337;SDS011;28933;52.492;13.434;2024-01-30T18:32:34;17.35;;;11.93;;
43337;SDS011;28933;52.492;13.434;2024-01-30T18:35:20;16.23;;;10.82;;
43337;SDS011;28933;52.492;13.434;2024-01-30T18:38:06;20.35;;;12.88;;
43337;SDS011;28933;52.492;13.434;2024-01-30T18:40:52;22.80;;;13.25;;
43337;SDS011;28933;52.492;13.434;2024-01-30T18:43:38;18.10;;;11.68;;
43337;SDS011;28933;52.492;13.434;2024-01-30T18:46:24;18.65;;;11.43;;
43337;SDS011;28933;52.492;13.434;2024-01-30T18:49:10;18.08;;;11.77;;
43337;SDS011;28933;52.492;13.434;2024-01-30T18:51:56;22.83;;;13.10;;
43337;SDS011;28933;52.492;13.434;2024-01-30T18:54:44;20.83;;;12.63;;
43337;SDS011;28933;52.492;13.434;2024-01-30T18:57:30;17.02;;;11.18;;
43337;SDS011;28933;52.492;13.434;2024-01-30T19:00:16;16.45;;;11.32;;
43337;SDS011;28933;52.492;13.434;2024-01-30T19:03:02;16.52;;;10.35;;
43337;SDS011;28933;52.492;13.434;2024-01-30T19:05:48;15.35;;;10.15;;
43337;SDS011;28933;52.492;13.434;2024-01-30T19:08:34;17.23;;;10.93;;
43337;SDS011;28933;52.492;13.434;2024-01-30T19:11:21;16.15;;;10.55;;
43337;SDS011;28933;52.492;13.434;2024-01-30T19:14:07;18.58;;;10.95;;
43337;SDS011;28933;52.492;13.434;2024-01-30T19:16:53;19.55;;;11.65;;
43337;SDS011;28933;52.492;13.434;2024-01-30T19:19:39;19.20;;;10.82;;
43337;SDS011;28933;52.492;13.434;2024-01-30T19:22:25;17.10;;;10.95;;
43337;SDS011;28933;52.492;13.434;2024-01-30T19:25:11;17.45;;;8.85;;
43337;SDS011;28933;52.492;13.434;2024-01-30T19:27:57;14.50;;;8.75;;
43337;SDS011;28933;52.492;13.434;2024-01-30T19:30:44;14.68;;;8.82;;
43337;SDS011;28933;52.492;13.434;2024-01-30T19:33:30;15.13;;;9.40;;
43337;SDS011;28933;52.492;13.434;2024-01-30T19:36:16;13.15;;;9.75;;
43337;SDS011;28933;52.492;13.434;2024-01-30T19:39:02;13.27;;;8.93;;
43337;SDS011;28933;52.492;13.434;2024-01-30T19:41:48;13.98;;;9.35;;
43337;SDS011;28933;52.492;13.434;2024-01-30T19:44:34;14.75;;;9.10;;
43337;SDS011;28933;52.492;13.434;2024-01-30T19:47:22;16.83;;;9.40;;
43337;SDS011;28933;52.492;13.434;2024-01-30T19:50:08;13.77;;;8.95;;
43337;SDS011;28933;52.492;13.434;2024-01-30T19:52:54;17.80;;;9.80;;
43337;SDS011;28933;52.492;13.434;2024-01-30T19:55:40;16.42;;;9.88;;
43337;SDS011;28933;52.492;13.434;2024-01-30T19:58:26;17.33;;;10.30;;
43337;SDS011;28933;52.492;13.434;2024-01-30T20:01:12;15.25;;;10.63;;
43337;SDS011;28933;52.492;13.434;2024-01-30T20:03:58;15.25;;;9.18;;
43337;SDS011;28933;52.492;13.434;2024-01-30T20:06:44;15.65;;;9.05;;
43337;SDS011;28933;52.492;13.434;2024-01-30T20:09:30;16.60;;;9.93;;
43337;SDS011;28933;52.492;13.434;2024-01-30T20:12:16;15.30;;;10.57;;
43337;SDS011;28933;52.492;13.434;2024-01-30T20:15:03;16.83;;;10.25;;
43337;SDS011;28933;52.492;13.434;2024-01-30T20:17:49;17.08;;;9.82;;
43337;SDS011;28933;52.492;13.434;2024-01-30T20:20:35;17.48;;;10.10;;
43337;SDS011;28933;52.492;13.434;2024-01-30T20:23:22;16.38;;;10.82;;
43337;SDS011;28933;52.492;13.434;2024-01-30T20:26:08;15.15;;;10.27;;
43337;SDS011;28933;52.492;13.434;2024-01-30T20:28:54;15.88;;;8.60;;
43337;SDS011;28933;52.492;13.434;2024-01-30T20:31:40;12.95;;;8.63;;
43337;SDS011;28933;52.492;13.434;2024-01-30T20:34:26;14.55;;;8.00;;
43337;SDS011;28933;52.492;13.434;2024-01-30T20:37:12;13.18;;;8.13;;
43337;SDS011;28933;52.492;13.434;2024-01-30T20:39:58;11.75;;;8.52;;
43337;SDS011;28933;52.492;13.434;2024-01-30T20:42:44;13.18;;;7.72;;
43337;SDS011;28933;52.492;13.434;2024-01-30T20:45:32;10.93;;;7.72;;
43337;SDS011;28933;52.492;13.434;2024-01-30T20:48:18;16.45;;;7.03;;
43337;SDS011;28933;52.492;13.434;2024-01-30T20:51:05;12.98;;;7.60;;
43337;SDS011;28933;52.492;13.434;2024-01-30T20:53:51;14.70;;;8.18;;
43337;SDS011;28933;52.492;13.434;2024-01-30T20:56:37;14.40;;;7.25;;
43337;SDS011;28933;52.492;13.434;2024-01-30T20:59:23;11.57;;;7.47;;
43337;SDS011;28933;52.492;13.434;2024-01-30T21:02:09;9.40;;;6.93;;
43337;SDS011;28933;52.492;13.434;2024-01-30T21:04:55;10.75;;;8.00;;
43337;SDS011;28933;52.492;13.434;2024-01-30T21:07:41;10.88;;;7.25;;
43337;SDS011;28933;52.492;13.434;2024-01-30T21:10:27;12.80;;;7.53;;
43337;SDS011;28933;52.492;13.434;2024-01-30T21:13:13;10.82;;;8.20;;
43337;SDS011;28933;52.492;13.434;2024-01-30T21:15:59;10.25;;;6.90;;
43337;SDS011;28933;52.492;13.434;2024-01-30T21:18:45;11.95;;;7.45;;
43337;SDS011;28933;52.492;13.434;2024-01-30T21:21:31;11.02;;;7.20;;
43337;SDS011;28933;52.492;13.434;2024-01-30T21:24:17;11.18;;;7.70;;
43337;SDS011;28933;52.492;13.434;2024-01-30T21:27:03;13.23;;;7.72;;
43337;SDS011;28933;52.492;13.434;2024-01-30T21:29:49;13.48;;;8.38;;
43337;SDS011;28933;52.492;13.434;2024-01-30T21:32:35;11.57;;;8.10;;
43337;SDS011;28933;52.492;13.434;2024-01-30T21:35:22;13.18;;;8.27;;
43337;SDS011;28933;52.492;13.434;2024-01-30T21:38:08;10.88;;;7.22;;
43337;SDS011;28933;52.492;13.434;2024-01-30T21:40:54;12.93;;;8.43;;
43337;SDS011;28933;52.492;13.434;2024-01-30T21:43:40;11.82;;;7.95;;
43337;SDS011;28933;52.492;13.434;2024-01-30T21:46:26;12.07;;;8.00;;
43337;SDS011;28933;52.492;13.434;2024-01-30T21:49:13;14.65;;;8.30;;
43337;SDS011;28933;52.492;13.434;2024-01-30T21:51:58;13.75;;;9.20;;
43337;SDS011;28933;52.492;13.434;2024-01-30T21:54:50;16.48;;;10.27;;
43337;SDS011;28933;52.492;13.434;2024-01-30T21:57:36;16.98;;;12.32;;
43337;SDS011;28933;52.492;13.434;2024-01-30T22:00:22;31.67;;;25.25;;
43337;SDS011;28933;52.492;13.434;2024-01-30T22:03:08;29.60;;;23.25;;
43337;SDS011;28933;52.492;13.434;2024-01-30T22:05:54;33.08;;;25.38;;
43337;SDS011;28933;52.492;13.434;2024-01-30T22:08:39;31.88;;;25.65;;
43337;SDS011;28933;52.492;13.434;2024-01-30T22:11:25;29.08;;;22.60;;
43337;SDS011;28933;52.492;13.434;2024-01-30T22:14:11;27.52;;;21.65;;
43337;SDS011;28933;52.492;13.434;2024-01-30T22:16:57;20.60;;;16.17;;
43337;SDS011;28933;52.492;13.434;2024-01-30T22:19:43;16.92;;;12.50;;
43337;SDS011;28933;52.492;13.434;2024-01-30T22:22:29;12.63;;;9.48;;
43337;SDS011;28933;52.492;13.434;2024-01-30T22:25:15;12.88;;;9.50;;
43337;SDS011;28933;52.492;13.434;2024-01-30T22:28:01;12.27;;;8.80;;
43337;SDS011;28933;52.492;13.434;2024-01-30T22:30:47;15.40;;;7.68;;
43337;SDS011;28933;52.492;13.434;2024-01-30T22:33:33;12.80;;;8.20;;
43337;SDS011;28933;52.492;13.434;2024-01-30T22:36:19;11.60;;;8.57;;
43337;SDS011;28933;52.492;13.434;2024-01-30T22:39:07;11.13;;;7.65;;
43337;SDS011;28933;52.492;13.434;2024-01-30T22:41:55;11.32;;;7.63;;
43337;SDS011;28933;52.492;13.434;2024-01-30T22:44:41;10.30;;;7.05;;
43337;SDS011;28933;52.492;13.434;2024-01-30T22:47:27;11.50;;;7.15;;
43337;SDS011;28933;52.492;13.434;2024-01-30T22:50:13;11.32;;;6.80;;
43337;SDS011;28933;52.492;13.434;2024-01-30T22:52:59;11.30;;;6.90;;
43337;SDS011;28933;52.492;13.434;2024-01-30T22:55:45;11.27;;;6.95;;
43337;SDS011;28933;52.492;13.434;2024-01-30T22:58:31;10.85;;;6.65;;
43337;SDS011;28933;52.492;13.434;2024-01-30T23:01:17;8.65;;;6.82;;
43337;SDS011;28933;52.492;13.434;2024-01-30T23:04:03;9.65;;;7.38;;
43337;SDS011;28933;52.492;13.434;2024-01-30T23:06:49;9.05;;;6.95;;
43337;SDS011;28933;52.492;13.434;2024-01-30T23:09:36;11.30;;;7.07;;
43337;SDS011;28933;52.492;13.434;2024-01-30T23:12:22;9.60;;;7.65;;
43337;SDS011;28933;52.492;13.434;2024-01-30T23:15:08;9.32;;;6.70;;
43337;SDS011;28933;52.492;13.434;2024-01-30T23:17:55;10.30;;;7.18;;
43337;SDS011;28933;52.492;13.434;2024-01-30T23:20:41;14.25;;;7.35;;
43337;SDS011;28933;52.492;13.434;2024-01-30T23:23:27;10.57;;;7.78;;
43337;SDS011;28933;52.492;13.434;2024-01-30T23:26:13;10.20;;;7.32;;
43337;SDS011;28933;52.492;13.434;2024-01-30T23:29:00;12.00;;;7.45;;
43337;SDS011;28933;52.492;13.434;2024-01-30T23:31:46;10.23;;;6.82;;
43337;SDS011;28933;52.492;13.434;2024-01-30T23:34:33;9.73;;;6.82;;
43337;SDS011;28933;52.492;13.434;2024-01-30T23:37:19;11.52;;;7.80;;
43337;SDS011;28933;52.492;13.434;2024-01-30T23:40:11;10.25;;;7.13;;
43337;SDS011;28933;52.492;13.434;2024-01-30T23:42:58;8.98;;;7.07;;
43337;SDS011;28933;52.492;13.434;2024-01-30T23:45:44;10.45;;;6.93;;
43337;SDS011;28933;52.492;13.434;2024-01-30T23:48:30;11.70;;;6.45;;
43337;SDS011;28933;52.492;13.434;2024-01-30T23:51:15;9.13;;;7.10;;
43337;SDS011;28933;52.492;13.434;2024-01-30T23:54:01;13.93;;;8.50;;
43337;SDS011;28933;52.492;13.434;2024-01-30T23:56:47;12.23;;;8.00;;
43337;SDS011;28933;52.492;13.434;2024-01-30T23:59:33;10.80;;;7.18;;
